createdAt,value
2018-11-12T00:01:11.528Z,13.10
2018-11-12T00:03:41.737Z,13.20
2018-11-12T00:06:12.130Z,13.20
2018-11-12T00:08:42.612Z,13.20
2018-11-12T00:11:12.914Z,13.10
2018-11-12T00:13:43.228Z,13.00
2018-11-12T00:16:13.752Z,13.00
2018-11-12T00:18:44.082Z,13.00
2018-11-12T00:21:14.438Z,13.10
2018-11-12T00:23:44.937Z,13.10
2018-11-12T00:26:15.682Z,13.20
2018-11-12T00:28:46.084Z,13.10
2018-11-12T00:31:16.555Z,13.20
2018-11-12T00:33:46.803Z,13.20
2018-11-12T00:36:17.133Z,13.10
2018-11-12T00:38:47.427Z,13.10
2018-11-12T00:41:17.817Z,13.00
2018-11-12T00:43:48.242Z,13.10
2018-11-12T00:46:18.757Z,13.10
2018-11-12T00:48:49.263Z,13.10
2018-11-12T00:51:19.607Z,13.10
2018-11-12T00:53:49.907Z,13.10
2018-11-12T00:56:20.207Z,13.10
2018-11-12T00:58:50.532Z,13.00
2018-11-12T01:01:21.017Z,13.00
2018-11-12T01:03:51.300Z,13.00
2018-11-12T01:06:21.653Z,13.00
2018-11-12T01:08:52.048Z,12.90
2018-11-12T01:11:22.402Z,12.90
2018-11-12T01:13:52.867Z,12.90
2018-11-12T01:16:23.123Z,12.90
2018-11-12T01:18:53.497Z,12.90
2018-11-12T01:21:23.687Z,12.90
2018-11-12T01:23:54.192Z,12.90
2018-11-12T01:26:24.437Z,12.90
2018-11-12T01:28:54.797Z,12.90
2018-11-12T01:31:25.049Z,12.90
2018-11-12T01:33:55.252Z,12.90
2018-11-12T01:36:25.872Z,12.80
2018-11-12T01:38:56.228Z,12.80
2018-11-12T01:41:26.573Z,12.70
2018-11-12T01:43:56.917Z,12.70
2018-11-12T01:46:27.232Z,12.80
2018-11-12T01:48:57.588Z,12.80
2018-11-12T01:51:27.792Z,12.80
2018-11-12T01:53:58.057Z,12.90
2018-11-12T01:56:28.367Z,12.80
2018-11-12T01:58:58.773Z,12.80
2018-11-12T02:01:29.006Z,12.80
2018-11-12T02:03:59.296Z,12.70
2018-11-12T02:06:29.702Z,12.50
2018-11-12T02:09:00.021Z,12.50
2018-11-12T02:11:30.252Z,12.40
2018-11-12T02:14:00.537Z,12.40
2018-11-12T02:16:30.786Z,12.40
2018-11-12T02:19:00.992Z,12.40
2018-11-12T02:21:31.230Z,12.50
2018-11-12T02:24:01.593Z,12.60
2018-11-12T02:26:31.727Z,12.60
2018-11-12T02:29:02.123Z,12.60
2018-11-12T02:31:32.393Z,12.70
2018-11-12T02:34:02.627Z,12.70
2018-11-12T02:36:32.808Z,12.50
2018-11-12T02:39:03.098Z,12.30
2018-11-12T02:41:33.317Z,12.10
2018-11-12T02:44:03.637Z,12.30
2018-11-12T02:46:33.892Z,12.30
2018-11-12T02:49:04.158Z,12.40
2018-11-12T02:51:34.449Z,12.50
2018-11-12T02:54:05.439Z,12.50
2018-11-12T02:56:36.262Z,12.50
2018-11-12T02:59:06.608Z,12.50
2018-11-12T03:01:36.827Z,12.60
2018-11-12T03:04:07.130Z,12.60
2018-11-12T03:06:37.458Z,12.60
2018-11-12T03:09:12.273Z,12.60
2018-11-12T03:11:42.704Z,12.60
2018-11-12T03:14:13.127Z,12.60
2018-11-12T03:16:43.357Z,12.60
2018-11-12T03:19:13.607Z,12.50
2018-11-12T03:21:43.877Z,12.50
2018-11-12T03:24:14.264Z,12.50
2018-11-12T03:26:44.574Z,12.60
2018-11-12T03:29:14.807Z,12.50
2018-11-12T03:31:45.148Z,12.50
2018-11-12T03:34:15.377Z,12.50
2018-11-12T03:36:45.737Z,12.50
2018-11-12T03:39:16.072Z,12.50
2018-11-12T03:41:46.252Z,12.50
2018-11-12T03:44:16.631Z,12.50
2018-11-12T03:46:47.172Z,12.40
2018-11-12T03:49:17.352Z,12.40
2018-11-12T03:51:47.673Z,12.40
2018-11-12T03:54:18.054Z,12.50
2018-11-12T03:56:48.348Z,12.60
2018-11-12T03:59:18.592Z,12.60
2018-11-12T04:01:49.122Z,12.60
2018-11-12T04:04:19.372Z,12.60
2018-11-12T04:06:49.702Z,12.60
2018-11-12T04:09:20.127Z,12.60
2018-11-12T04:11:50.398Z,12.60
2018-11-12T04:14:20.772Z,12.70
2018-11-12T04:16:51.368Z,12.80
2018-11-12T04:19:21.807Z,12.70
2018-11-12T04:21:52.212Z,12.70
2018-11-12T04:24:22.466Z,12.70
2018-11-12T04:30:14.356Z,12.60
2018-11-12T04:32:46.057Z,12.70
2018-11-12T04:35:16.702Z,12.70
2018-11-12T04:37:47.347Z,12.70
2018-11-12T04:40:18.760Z,12.80
2018-11-12T04:42:49.997Z,12.80
2018-11-12T04:45:21.602Z,12.90
2018-11-12T04:47:52.820Z,12.90
2018-11-12T04:50:27.332Z,12.80
2018-11-12T04:52:57.677Z,12.90
2018-11-12T04:55:28.011Z,12.90
2018-11-12T04:57:58.308Z,12.90
2018-11-12T05:00:29.433Z,13.00
2018-11-12T05:02:59.757Z,12.90
2018-11-12T05:05:30.261Z,13.00
2018-11-12T05:08:00.723Z,13.10
2018-11-12T05:10:30.990Z,13.30
2018-11-12T05:13:01.303Z,13.40
2018-11-12T05:15:31.668Z,13.50
2018-11-12T05:18:01.977Z,13.50
2018-11-12T05:20:32.528Z,13.60
2018-11-12T05:23:02.938Z,13.70
2018-11-12T05:25:33.277Z,13.80
2018-11-12T05:28:03.502Z,13.90
2018-11-12T05:30:34.927Z,14.00
2018-11-12T05:33:05.418Z,14.00
2018-11-12T05:35:35.952Z,14.10
2018-11-12T05:38:07.455Z,14.10
2018-11-12T05:40:38.228Z,14.20
2018-11-12T05:43:08.532Z,14.20
2018-11-12T05:45:39.413Z,14.20
2018-11-12T05:48:09.633Z,14.20
2018-11-12T05:50:40.054Z,13.90
2018-11-12T05:53:10.386Z,13.90
2018-11-12T05:55:40.827Z,13.80
2018-11-12T05:58:11.217Z,13.80
2018-11-12T06:00:41.538Z,13.90
2018-11-12T06:03:12.007Z,13.90
2018-11-12T06:05:42.249Z,14.00
2018-11-12T06:08:12.757Z,14.00
2018-11-12T06:10:43.192Z,14.00
2018-11-12T06:13:13.782Z,14.00
2018-11-12T06:15:44.102Z,14.20
2018-11-12T06:18:15.483Z,14.20
2018-11-12T06:20:45.688Z,14.40
2018-11-12T06:23:16.107Z,14.50
2018-11-12T06:25:46.358Z,14.60
2018-11-12T06:28:16.678Z,14.70
2018-11-12T06:30:46.887Z,14.90
2018-11-12T06:33:17.368Z,15.10
2018-11-12T06:35:47.603Z,15.20
2018-11-12T06:38:17.917Z,15.30
2018-11-12T06:40:48.233Z,15.60
2018-11-12T06:43:25.334Z,15.60
2018-11-12T06:45:55.718Z,15.80
2018-11-12T06:48:26.068Z,15.90
2018-11-12T06:50:56.342Z,16.00
2018-11-12T06:53:26.869Z,15.90
2018-11-12T06:55:57.092Z,16.00
2018-11-12T06:58:28.498Z,16.10
2018-11-12T07:00:58.900Z,16.50
2018-11-12T07:03:29.862Z,16.70
2018-11-12T07:06:00.262Z,16.60
2018-11-12T07:08:30.692Z,16.70
2018-11-12T07:11:01.138Z,16.50
2018-11-12T07:13:31.722Z,16.50
2018-11-12T07:16:02.144Z,16.10
2018-11-12T07:18:32.683Z,16.00
2018-11-12T07:21:03.072Z,15.80
2018-11-12T07:23:33.493Z,15.60
2018-11-12T07:26:03.917Z,15.60
2018-11-12T07:28:34.463Z,15.50
2018-11-12T07:31:04.943Z,15.30
2018-11-12T07:33:35.437Z,15.30
2018-11-12T07:36:05.893Z,15.60
2018-11-12T07:38:36.322Z,16.10
2018-11-12T07:41:06.783Z,16.40
2018-11-12T07:43:37.087Z,16.70
2018-11-12T07:46:07.636Z,16.90
2018-11-12T07:48:38.160Z,17.20
2018-11-12T07:51:08.400Z,17.20
2018-11-12T07:53:38.568Z,17.00
2018-11-12T07:56:09.106Z,17.00
2018-11-12T07:58:39.354Z,17.10
2018-11-12T08:01:09.993Z,17.10
2018-11-12T08:03:40.314Z,16.80
2018-11-12T08:06:10.978Z,16.70
2018-11-12T08:08:41.398Z,16.70
2018-11-12T08:11:11.893Z,16.80
2018-11-12T08:13:42.123Z,16.70
2018-11-12T08:16:12.573Z,16.60
2018-11-12T08:18:42.942Z,16.50
2018-11-12T08:21:13.347Z,16.40
2018-11-12T08:23:43.808Z,16.50
2018-11-12T08:26:14.257Z,16.50
2018-11-12T08:28:44.742Z,16.70
2018-11-12T08:31:15.323Z,16.90
2018-11-12T08:33:45.709Z,17.10
2018-11-12T08:36:16.138Z,17.20
2018-11-12T08:39:01.737Z,17.30
2018-11-12T08:41:38.513Z,17.20
2018-11-12T08:44:09.268Z,17.20
2018-11-12T08:46:39.797Z,17.20
2018-11-12T08:49:10.285Z,17.20
2018-11-12T08:51:40.657Z,17.40
2018-11-12T08:54:11.113Z,17.60
2018-11-12T08:56:41.678Z,17.90
2018-11-12T08:59:12.521Z,18.10
2018-11-12T09:01:43.693Z,17.80
2018-11-12T09:04:14.776Z,17.60
2018-11-12T09:06:45.498Z,17.90
2018-11-12T09:09:16.324Z,17.90
2018-11-12T09:11:46.913Z,18.00
2018-11-12T09:14:18.547Z,18.10
2018-11-12T09:16:51.333Z,17.90
2018-11-12T09:19:22.078Z,17.80
2018-11-12T09:21:52.487Z,17.60
2018-11-12T09:24:24.122Z,17.70
2018-11-12T09:26:54.652Z,17.80
2018-11-12T09:29:25.828Z,17.30
2018-11-12T09:31:56.399Z,17.00
2018-11-12T09:34:27.128Z,16.80
2018-11-12T09:36:57.514Z,17.10
2018-11-12T09:39:28.567Z,17.10
2018-11-12T09:41:59.012Z,16.90
2018-11-12T09:44:29.655Z,16.50
2018-11-12T09:47:00.362Z,16.80
2018-11-12T09:49:32.679Z,17.00
2018-11-12T09:52:03.073Z,17.00
2018-11-12T09:54:33.796Z,16.60
2018-11-12T09:57:04.457Z,16.70
2018-11-12T09:59:35.247Z,16.90
2018-11-12T10:02:06.093Z,17.00
2018-11-12T10:04:38.204Z,17.10
2018-11-12T10:07:09.860Z,17.30
2018-11-12T10:09:41.071Z,17.30
2018-11-12T10:12:12.115Z,17.30
2018-11-12T10:14:42.993Z,17.50
2018-11-12T10:17:14.478Z,17.70
2018-11-12T10:19:41.757Z,17.70
2018-11-12T10:22:12.257Z,17.80
2018-11-12T10:24:43.337Z,17.70
2018-11-12T10:27:14.035Z,17.70
2018-11-12T10:29:44.778Z,17.90
2018-11-12T10:32:15.353Z,17.90
2018-11-12T10:34:46.092Z,18.10
2018-11-12T10:37:17.518Z,17.80
2018-11-12T10:39:48.253Z,17.50
2018-11-12T10:42:18.944Z,17.20
2018-11-12T10:44:49.767Z,17.40
2018-11-12T10:47:20.118Z,17.50
2018-11-12T10:49:50.803Z,17.70
2018-11-12T10:52:22.193Z,17.70
2018-11-12T10:55:04.899Z,17.40
2018-11-12T10:57:23.767Z,17.50
2018-11-12T10:59:54.593Z,17.50
2018-11-12T11:02:31.684Z,17.50
2018-11-12T11:05:02.778Z,17.90
2018-11-12T11:07:33.193Z,17.90
2018-11-12T11:10:03.687Z,17.90
2018-11-12T11:12:34.362Z,18.00
2018-11-12T11:15:04.998Z,17.90
2018-11-12T11:17:35.478Z,17.90
2018-11-12T11:20:06.762Z,17.80
2018-11-12T11:22:37.258Z,17.90
2018-11-12T11:25:08.743Z,17.90
2018-11-12T11:27:39.767Z,17.90
2018-11-12T11:30:13.269Z,18.00
2018-11-12T11:32:44.047Z,18.00
2018-11-12T11:35:16.208Z,18.00
2018-11-12T11:37:47.875Z,18.10
2018-11-12T11:40:22.048Z,18.00
2018-11-12T11:42:52.553Z,18.10
2018-11-12T11:45:23.623Z,18.20
2018-11-12T11:47:54.495Z,18.30
2018-11-12T11:50:26.754Z,18.20
2018-11-12T11:52:57.359Z,17.80
2018-11-12T11:55:28.068Z,17.80
2018-11-12T11:57:58.473Z,17.90
2018-11-12T12:00:30.328Z,17.90
2018-11-12T12:03:01.610Z,17.80
2018-11-12T12:05:32.503Z,17.70
2018-11-12T12:08:03.309Z,17.60
2018-11-12T12:10:35.888Z,17.50
2018-11-12T12:13:07.262Z,17.60
2018-11-12T12:15:38.298Z,17.70
2018-11-12T12:18:08.728Z,17.70
2018-11-12T12:20:39.433Z,17.50
2018-11-12T12:23:09.917Z,17.50
2018-11-12T12:25:40.712Z,17.50
2018-11-12T12:28:12.113Z,17.70
2018-11-12T12:30:42.778Z,17.90
2018-11-12T12:33:15.118Z,17.90
2018-11-12T12:35:46.384Z,17.90
2018-11-12T12:38:16.883Z,17.90
2018-11-12T12:40:48.590Z,17.90
2018-11-12T12:43:19.983Z,17.70
2018-11-12T12:45:51.067Z,17.90
2018-11-12T12:48:22.233Z,18.00
2018-11-12T12:50:52.958Z,17.90
2018-11-12T12:53:24.064Z,17.90
2018-11-12T12:55:55.643Z,17.90
2018-11-12T12:58:26.404Z,18.00
2018-11-12T13:00:57.088Z,17.80
2018-11-12T13:03:27.705Z,17.70
2018-11-12T13:05:58.503Z,17.60
2018-11-12T13:08:29.053Z,17.80
2018-11-12T13:10:59.913Z,17.90
2018-11-12T13:13:30.528Z,17.70
2018-11-12T13:16:01.341Z,17.70
2018-11-12T13:18:32.168Z,17.70
2018-11-12T13:21:02.848Z,17.50
2018-11-12T13:23:33.723Z,17.60
2018-11-12T13:26:04.448Z,17.70
2018-11-12T13:28:35.213Z,17.50
2018-11-12T13:31:05.733Z,17.30
2018-11-12T13:33:36.418Z,17.20
2018-11-12T13:36:07.569Z,16.90
2018-11-12T13:38:37.998Z,16.90
2018-11-12T13:41:08.429Z,16.90
2018-11-12T13:43:38.973Z,16.80
2018-11-12T13:46:09.398Z,16.70
2018-11-12T13:48:40.873Z,16.70
2018-11-12T13:51:11.139Z,16.70
2018-11-12T13:53:42.239Z,16.60
2018-11-12T13:56:12.589Z,16.50
2018-11-12T13:58:42.928Z,16.50
2018-11-12T14:01:13.231Z,16.30
2018-11-12T14:03:43.468Z,16.30
2018-11-12T14:06:13.968Z,16.20
2018-11-12T14:08:44.519Z,16.10
2018-11-12T14:11:14.898Z,16.10
2018-11-12T14:13:46.977Z,16.00
2018-11-12T14:16:17.828Z,16.00
2018-11-12T14:18:48.614Z,15.90
2018-11-12T14:21:19.146Z,15.80
2018-11-12T14:23:49.571Z,15.70
2018-11-12T14:26:20.309Z,15.70
2018-11-12T14:28:50.929Z,15.70
2018-11-12T14:31:21.379Z,15.60
2018-11-12T14:33:52.704Z,15.60
2018-11-12T14:36:23.404Z,15.50
2018-11-12T14:38:54.339Z,15.50
2018-11-12T14:41:24.853Z,15.60
2018-11-12T14:43:55.175Z,15.50
2018-11-12T14:46:25.776Z,15.50
2018-11-12T14:48:56.273Z,15.40
2018-11-12T14:51:26.619Z,15.40
2018-11-12T14:53:58.089Z,15.40
2018-11-12T14:56:28.659Z,15.30
2018-11-12T14:59:00.124Z,15.30
2018-11-12T15:01:30.673Z,15.30
2018-11-12T15:04:01.233Z,15.20
2018-11-12T15:06:32.339Z,15.20
2018-11-12T15:09:03.196Z,15.20
2018-11-12T15:11:39.744Z,15.20
2018-11-12T15:14:11.333Z,15.20
2018-11-12T15:16:41.823Z,15.20
2018-11-12T15:19:12.313Z,15.10
2018-11-12T15:21:43.125Z,15.10
2018-11-12T15:24:13.413Z,15.00
2018-11-12T15:26:43.814Z,15.10
2018-11-12T15:29:14.201Z,15.10
2018-11-12T15:31:46.558Z,15.20
2018-11-12T15:34:16.793Z,15.10
2018-11-12T15:36:47.717Z,15.10
2018-11-12T15:39:18.143Z,15.00
2018-11-12T15:41:48.575Z,15.00
2018-11-12T15:44:18.973Z,14.90
2018-11-12T15:46:49.303Z,14.80
2018-11-12T15:49:19.904Z,14.80
2018-11-12T15:51:50.473Z,14.80
2018-11-12T15:54:21.032Z,14.70
2018-11-12T15:56:51.374Z,14.90
2018-11-12T15:59:21.963Z,15.00
2018-11-12T16:01:52.428Z,14.90
2018-11-12T16:04:23.179Z,14.90
2018-11-12T16:06:53.694Z,14.80
2018-11-12T16:09:24.318Z,14.80
2018-11-12T16:11:54.916Z,14.70
2018-11-12T16:14:25.133Z,14.70
2018-11-12T16:16:55.732Z,14.70
2018-11-12T16:19:26.155Z,14.60
2018-11-12T16:21:56.528Z,14.50
2018-11-12T16:24:26.868Z,14.50
2018-11-12T16:26:57.588Z,14.60
2018-11-12T16:29:27.933Z,14.60
2018-11-12T16:31:58.384Z,14.50
2018-11-12T16:34:28.803Z,14.70
2018-11-12T16:36:59.499Z,14.70
2018-11-12T16:39:29.773Z,14.70
2018-11-12T16:42:00.074Z,14.70
2018-11-12T16:44:30.344Z,14.60
2018-11-12T16:47:00.793Z,14.60
2018-11-12T16:49:31.049Z,14.50
2018-11-12T16:52:01.558Z,14.60
2018-11-12T16:54:31.908Z,14.50
2018-11-12T16:57:02.319Z,14.60
2018-11-12T16:59:32.618Z,14.50
2018-11-12T17:02:03.029Z,14.80
2018-11-12T17:04:33.334Z,15.00
2018-11-12T17:07:03.783Z,14.90
2018-11-12T17:09:34.228Z,14.90
2018-11-12T17:12:04.942Z,15.00
2018-11-12T17:14:35.224Z,14.90
2018-11-12T17:17:05.638Z,14.80
2018-11-12T17:19:37.328Z,14.80
2018-11-12T17:22:07.814Z,14.80
2018-11-12T17:24:38.239Z,14.80
2018-11-12T17:27:09.238Z,14.80
2018-11-12T17:29:39.553Z,14.80
2018-11-12T17:32:10.298Z,14.90
2018-11-12T17:34:40.880Z,14.80
2018-11-12T17:37:11.617Z,14.80
2018-11-12T17:39:42.013Z,14.80
2018-11-12T17:42:12.503Z,14.80
2018-11-12T17:44:42.879Z,14.80
2018-11-12T17:47:13.238Z,14.90
2018-11-12T17:49:43.723Z,14.80
2018-11-12T17:52:14.088Z,14.80
2018-11-12T17:54:44.473Z,14.70
2018-11-12T17:57:14.879Z,14.70
2018-11-12T17:59:45.208Z,14.60
2018-11-12T18:02:15.673Z,14.60
2018-11-12T18:04:45.988Z,14.70
2018-11-12T18:07:16.631Z,14.70
2018-11-12T18:09:46.943Z,14.70
2018-11-12T18:12:17.244Z,14.50
2018-11-12T18:14:47.533Z,14.50
2018-11-12T18:17:18.013Z,14.40
2018-11-12T18:19:48.348Z,14.50
2018-11-12T18:22:18.753Z,14.50
2018-11-12T18:24:48.952Z,14.50
2018-11-12T18:27:20.442Z,14.50
2018-11-12T18:29:51.059Z,14.30
2018-11-12T18:32:21.520Z,14.40
2018-11-12T18:34:51.862Z,14.30
2018-11-12T18:37:25.653Z,14.40
2018-11-12T18:39:56.422Z,14.40
2018-11-12T18:42:26.748Z,14.40
2018-11-12T18:44:57.193Z,14.40
2018-11-12T18:47:27.487Z,14.30
2018-11-12T18:49:59.318Z,14.20
2018-11-12T18:52:29.830Z,14.30
2018-11-12T18:55:00.107Z,14.30
2018-11-12T18:57:30.515Z,14.20
2018-11-12T19:00:00.757Z,14.30
2018-11-12T19:02:31.127Z,14.20
2018-11-12T19:05:01.643Z,14.20
2018-11-12T19:07:33.479Z,14.20
2018-11-12T19:10:05.222Z,14.20
2018-11-12T19:12:35.732Z,14.30
2018-11-12T19:15:07.307Z,14.40
2018-11-12T19:17:38.053Z,14.30
2018-11-12T19:20:08.717Z,14.30
2018-11-12T19:22:39.288Z,14.30
2018-11-12T19:25:11.139Z,14.40
2018-11-12T19:27:41.863Z,14.40
2018-11-12T19:30:16.263Z,14.40
2018-11-12T19:32:47.058Z,14.50
2018-11-12T19:35:18.703Z,14.50
2018-11-12T19:37:49.337Z,14.60
2018-11-12T19:40:21.001Z,14.70
2018-11-12T19:42:52.432Z,14.60
2018-11-12T19:45:22.742Z,14.60
2018-11-12T19:47:53.743Z,14.60
2018-11-12T19:50:25.222Z,14.60
2018-11-12T19:52:57.597Z,14.60
2018-11-12T19:55:27.957Z,14.50
2018-11-12T19:57:58.370Z,14.50
2018-11-12T20:00:29.528Z,14.50
2018-11-12T20:03:01.459Z,14.50
2018-11-12T20:05:31.718Z,14.60
2018-11-12T20:08:02.315Z,14.50
2018-11-12T20:10:32.828Z,14.50
2018-11-12T20:13:03.383Z,14.50
2018-11-12T20:15:34.546Z,14.40
2018-11-12T20:18:05.043Z,14.50
2018-11-12T20:20:35.858Z,14.50
2018-11-12T20:23:06.238Z,14.50
2018-11-12T20:25:36.793Z,14.40
2018-11-12T20:28:07.294Z,14.40
2018-11-12T20:30:39.403Z,14.40
2018-11-12T20:33:09.918Z,14.40
2018-11-12T20:35:40.304Z,14.40
2018-11-12T20:38:10.773Z,14.40
2018-11-12T20:40:41.150Z,14.40
2018-11-12T20:43:11.461Z,14.30
2018-11-12T20:45:41.754Z,14.20
2018-11-12T20:48:12.191Z,14.20
2018-11-12T20:50:42.519Z,14.20
2018-11-12T20:53:13.004Z,14.20
2018-11-12T20:55:43.783Z,14.10
2018-11-12T20:58:14.502Z,14.10
2018-11-12T21:00:45.234Z,14.10
2018-11-12T21:03:17.594Z,14.00
2018-11-12T21:05:48.519Z,13.90
2018-11-12T21:08:19.919Z,13.90
2018-11-12T21:10:53.097Z,13.90
2018-11-12T21:13:23.852Z,13.90
2018-11-12T21:15:57.429Z,13.80
2018-11-12T21:18:28.074Z,13.80
2018-11-12T21:20:58.364Z,13.80
2018-11-12T21:23:28.725Z,13.80
2018-11-12T21:25:59.879Z,13.80
2018-11-12T21:28:31.461Z,13.80
2018-11-12T21:31:02.484Z,13.70
2018-11-12T21:33:32.749Z,13.70
2018-11-12T21:36:03.214Z,13.70
2018-11-12T21:38:33.889Z,13.70
2018-11-12T21:41:04.769Z,13.70
2018-11-12T21:43:35.526Z,13.70
2018-11-12T21:46:05.989Z,13.70
2018-11-12T21:48:36.549Z,13.60
2018-11-12T21:51:07.369Z,13.50
2018-11-12T21:53:37.654Z,13.60
2018-11-12T21:56:08.129Z,13.60
2018-11-12T21:58:38.510Z,13.60
2018-11-12T22:01:09.893Z,13.60
2018-11-12T22:03:40.255Z,13.50
2018-11-12T22:06:11.534Z,13.50
2018-11-12T22:08:42.629Z,13.60
2018-11-12T22:11:13.135Z,13.60
2018-11-12T22:13:43.370Z,13.50
2018-11-12T22:16:13.822Z,13.50
2018-11-12T22:18:45.057Z,13.50
2018-11-12T22:21:15.490Z,13.60
2018-11-12T22:23:45.745Z,13.50
2018-11-12T22:26:16.101Z,13.50
2018-11-12T22:28:46.480Z,13.40
2018-11-12T22:31:16.905Z,13.30
2018-11-12T22:33:47.224Z,13.40
2018-11-12T22:36:17.640Z,13.40
2018-11-12T22:38:48.109Z,13.40
2018-11-12T22:41:18.449Z,13.30
2018-11-12T22:43:48.799Z,13.30
2018-11-12T22:46:19.219Z,13.30
2018-11-12T22:48:49.505Z,13.40
2018-11-12T22:51:19.959Z,13.30
2018-11-12T22:53:50.277Z,13.30
2018-11-12T22:56:20.634Z,13.20
2018-11-12T22:58:51.289Z,13.30
2018-11-12T23:01:21.714Z,13.20
2018-11-12T23:03:52.009Z,13.20
2018-11-12T23:06:22.409Z,13.20
2018-11-12T23:08:52.612Z,13.20
2018-11-12T23:11:22.864Z,13.10
2018-11-12T23:13:53.129Z,13.10
2018-11-12T23:16:23.344Z,13.10
2018-11-12T23:18:54.099Z,13.10
2018-11-12T23:21:24.384Z,13.00
2018-11-12T23:23:54.629Z,13.00
2018-11-12T23:26:24.964Z,13.00
2018-11-12T23:28:55.229Z,13.00
2018-11-12T23:31:25.531Z,13.10
2018-11-12T23:33:55.784Z,13.10
2018-11-12T23:36:26.424Z,13.10
2018-11-12T23:38:57.380Z,13.10
2018-11-12T23:41:27.769Z,13.10
2018-11-12T23:43:58.725Z,13.10
2018-11-12T23:46:29.039Z,13.10
2018-11-12T23:48:59.264Z,13.10
2018-11-12T23:51:29.679Z,13.10
2018-11-12T23:54:00.055Z,13.10
2018-11-12T23:56:30.354Z,13.20
2018-11-12T23:59:00.604Z,13.10
